Terminal Aerodrome Forecast
Issued by NWS

Home | Current Version | Previous Version | Text Only | Print | Product List | Glossary On
Versions: 1 2 3 4 5 6 7 8 9 10 11 12 13 14 15 16 17 18
000
FTUS44 KHGX 232122 AAA
TAFSGR
TAF AMD
KSGR 232122Z 2321/2418 31005KT P6SM VCTS SCT040CB SCT120 BKN250
      TEMPO 2321/2323 VRB25KT 3SM TSRA BKN035CB
     FM240100 10005KT P6SM SCT250
     FM241300 05003KT P6SM SCT030
     FM241700 08006KT P6SM VCSH SCT030 BKN120=

USA.gov is the U.S. government's official web portal to all federal, state and local government web resources and services.